createdAt,value
2019-03-04T00:00:27.947Z,3.07
2019-03-04T00:02:54.745Z,3.07
2019-03-04T00:05:21.471Z,3.03
2019-03-04T00:07:48.190Z,3.01
2019-03-04T00:10:15.008Z,2.97
2019-03-04T00:12:41.714Z,2.95
2019-03-04T00:15:08.554Z,2.93
2019-03-04T00:17:35.637Z,2.89
2019-03-04T00:20:05.489Z,2.87
2019-03-04T00:22:32.225Z,2.91
2019-03-04T00:24:59.024Z,2.89
2019-03-04T00:27:25.767Z,2.88
2019-03-04T00:29:52.500Z,2.85
2019-03-04T00:32:19.267Z,2.83
2019-03-04T00:34:45.994Z,2.82
2019-03-04T00:37:12.748Z,2.81
2019-03-04T00:39:39.653Z,2.82
2019-03-04T00:42:06.404Z,2.86
2019-03-04T00:44:33.143Z,2.91
2019-03-04T00:46:59.913Z,2.96
2019-03-04T00:49:26.642Z,3.04
2019-03-04T00:51:54.103Z,3.07
2019-03-04T00:54:20.873Z,3.09
2019-03-04T00:56:47.617Z,3.15
2019-03-04T00:59:14.341Z,3.16
2019-03-04T01:01:41.094Z,3.18
2019-03-04T01:04:07.835Z,3.21
2019-03-04T01:06:34.621Z,3.15
2019-03-04T01:09:01.360Z,3.13
2019-03-04T01:11:28.088Z,3.05
2019-03-04T01:13:54.900Z,3.12
2019-03-04T01:16:21.621Z,3.16
2019-03-04T01:18:48.357Z,3.15
2019-03-04T01:21:15.138Z,3.16
2019-03-04T01:23:41.873Z,3.19
2019-03-04T01:26:08.666Z,3.20
2019-03-04T01:28:35.396Z,3.19
2019-03-04T01:31:02.148Z,3.14
2019-03-04T01:33:28.932Z,3.08
2019-03-04T01:35:55.667Z,3.07
2019-03-04T01:38:22.415Z,3.06
2019-03-04T01:40:52.460Z,3.04
2019-03-04T01:43:19.181Z,3.04
2019-03-04T01:45:45.929Z,2.94
2019-03-04T01:48:12.709Z,2.89
2019-03-04T01:50:39.422Z,2.86
2019-03-04T01:53:06.211Z,2.85
2019-03-04T01:55:32.935Z,2.80
2019-03-04T01:57:59.669Z,2.84
2019-03-04T02:00:26.551Z,2.82
2019-03-04T02:02:53.278Z,2.82
2019-03-04T02:05:20.009Z,2.78
2019-03-04T02:07:46.800Z,2.84
2019-03-04T02:10:18.407Z,2.83
2019-03-04T02:12:46.180Z,2.87
2019-03-04T02:15:18.191Z,2.93
2019-03-04T02:17:45.141Z,2.92
2019-03-04T02:20:16.708Z,2.88
2019-03-04T02:22:44.126Z,2.84
2019-03-04T02:25:13.838Z,2.77
2019-03-04T02:27:51.473Z,2.79
2019-03-04T02:30:25.780Z,2.71
2019-03-04T02:32:52.522Z,2.64
2019-03-04T02:35:19.223Z,2.66
2019-03-04T02:37:46.026Z,2.63
2019-03-04T02:40:12.770Z,2.58
2019-03-04T02:42:39.531Z,2.59
2019-03-04T02:45:17.706Z,2.62
2019-03-04T02:47:44.524Z,2.61
2019-03-04T02:50:11.339Z,2.58
2019-03-04T02:52:38.110Z,2.63
2019-03-04T02:55:06.530Z,2.65
2019-03-04T02:57:33.398Z,2.71
2019-03-04T03:00:00.214Z,2.74
2019-03-04T03:02:27.239Z,2.67
2019-03-04T03:04:54.064Z,2.64
2019-03-04T03:07:20.799Z,2.65
2019-03-04T03:09:47.623Z,2.55
2019-03-04T03:12:14.481Z,2.63
2019-03-04T03:14:41.207Z,2.67
2019-03-04T03:17:07.957Z,2.65
2019-03-04T03:19:34.810Z,2.68
2019-03-04T03:22:01.526Z,2.72
2019-03-04T03:24:28.337Z,2.67
2019-03-04T03:26:55.074Z,2.66
2019-03-04T03:29:21.810Z,2.65
2019-03-04T03:31:48.694Z,2.61
2019-03-04T03:34:15.423Z,2.54
2019-03-04T03:36:42.175Z,2.52
2019-03-04T03:39:08.940Z,2.50
2019-03-04T03:41:35.653Z,2.52
2019-03-04T03:44:02.704Z,2.48
2019-03-04T03:46:29.455Z,2.44
2019-03-04T03:48:56.184Z,2.40
2019-03-04T03:51:22.932Z,2.37
2019-03-04T03:53:49.656Z,2.32
2019-03-04T03:56:16.460Z,2.28
2019-03-04T03:58:43.193Z,2.25
2019-03-04T04:01:09.938Z,2.20
2019-03-04T04:03:36.704Z,2.16
2019-03-04T04:06:03.435Z,2.17
2019-03-04T04:08:30.226Z,2.12
2019-03-04T04:10:56.953Z,2.00
2019-03-04T04:13:23.680Z,2.04
2019-03-04T04:15:50.480Z,2.02
2019-03-04T04:18:17.217Z,1.94
2019-03-04T04:20:43.943Z,1.96
2019-03-04T04:23:10.738Z,2.00
2019-03-04T04:25:37.492Z,2.07
2019-03-04T04:28:04.221Z,2.08
2019-03-04T04:30:31.005Z,2.01
2019-03-04T04:32:57.748Z,1.93
2019-03-04T04:35:24.471Z,1.87
2019-03-04T04:37:51.274Z,1.83
2019-03-04T04:40:17.994Z,1.82
2019-03-04T04:42:44.998Z,1.88
2019-03-04T04:45:12.059Z,1.92
2019-03-04T04:47:41.193Z,1.90
2019-03-04T04:50:18.552Z,1.87
2019-03-04T04:52:45.253Z,1.84
2019-03-04T04:55:12.027Z,1.75
2019-03-04T04:57:38.762Z,1.74
2019-03-04T05:00:15.638Z,1.76
2019-03-04T05:02:42.516Z,1.80
2019-03-04T05:05:09.331Z,1.75
2019-03-04T05:07:36.041Z,1.74
2019-03-04T05:10:13.430Z,1.70
2019-03-04T05:12:40.157Z,1.68
2019-03-04T05:15:10.659Z,1.64
2019-03-04T05:17:39.650Z,1.69
2019-03-04T05:20:16.068Z,1.72
2019-03-04T05:22:42.821Z,1.66
2019-03-04T05:25:09.649Z,1.62
2019-03-04T05:27:36.430Z,1.61
2019-03-04T05:30:08.085Z,1.56
2019-03-04T05:32:34.814Z,1.58
2019-03-04T05:35:01.569Z,1.56
2019-03-04T05:37:28.309Z,1.58
2019-03-04T05:39:55.205Z,1.53
2019-03-04T05:42:21.935Z,1.53
2019-03-04T05:44:48.739Z,1.48
2019-03-04T05:47:15.627Z,1.50
2019-03-04T05:49:42.338Z,1.50
2019-03-04T05:52:09.062Z,1.50
2019-03-04T05:54:35.833Z,1.51
2019-03-04T05:57:02.571Z,1.54
2019-03-04T05:59:29.287Z,1.51
2019-03-04T06:02:01.487Z,1.57
2019-03-04T06:04:28.212Z,1.54
2019-03-04T06:06:54.942Z,1.50
2019-03-04T06:09:22.143Z,1.50
2019-03-04T06:11:48.885Z,1.45
2019-03-04T06:14:15.613Z,1.42
2019-03-04T06:16:47.193Z,1.45
2019-03-04T06:19:12.745Z,1.48
2019-03-04T06:21:50.069Z,1.44
2019-03-04T06:24:18.608Z,1.44
2019-03-04T06:26:45.360Z,1.46
2019-03-04T06:29:14.008Z,1.45
2019-03-04T06:31:40.746Z,1.45
2019-03-04T06:34:07.468Z,1.46
2019-03-04T06:36:34.290Z,1.45
2019-03-04T06:39:09.993Z,1.45
2019-03-04T06:41:36.775Z,1.47
2019-03-04T06:44:03.507Z,1.44
2019-03-04T06:46:30.294Z,1.46
2019-03-04T06:48:57.106Z,1.52
2019-03-04T06:51:31.360Z,1.60
2019-03-04T06:54:12.494Z,1.65
2019-03-04T06:56:56.160Z,1.65
2019-03-04T06:59:47.581Z,1.64
2019-03-04T07:02:31.650Z,1.69
2019-03-04T07:05:44.448Z,1.70
2019-03-04T07:08:37.892Z,1.76
2019-03-04T07:11:04.975Z,1.81
2019-03-04T07:13:31.708Z,1.85
2019-03-04T07:15:58.442Z,1.93
2019-03-04T07:18:25.257Z,2.01
2019-03-04T07:20:51.968Z,2.09
2019-03-04T07:23:18.709Z,2.20
2019-03-04T07:25:45.494Z,2.35
2019-03-04T07:28:12.213Z,2.49
2019-03-04T07:30:38.942Z,2.67
2019-03-04T07:33:05.757Z,2.81
2019-03-04T07:35:32.469Z,3.02
2019-03-04T07:38:24.565Z,3.15
2019-03-04T07:40:51.286Z,3.30
2019-03-04T07:43:18.003Z,3.36
2019-03-04T07:45:44.915Z,3.40
2019-03-04T07:48:11.685Z,3.54
2019-03-04T07:50:38.532Z,3.59
2019-03-04T07:53:05.300Z,3.74
2019-03-04T07:55:32.023Z,3.84
2019-03-04T07:57:58.812Z,3.97
2019-03-04T08:00:25.545Z,4.06
2019-03-04T08:02:52.288Z,4.13
2019-03-04T08:05:19.079Z,4.11
2019-03-04T08:07:52.971Z,4.09
2019-03-04T08:10:36.849Z,4.12
2019-03-04T08:13:36.340Z,4.14
2019-03-04T08:16:03.377Z,4.13
2019-03-04T08:18:30.137Z,4.27
2019-03-04T08:20:56.936Z,4.40
2019-03-04T08:23:23.666Z,4.41
2019-03-04T08:25:50.472Z,4.53
2019-03-04T08:28:17.293Z,4.58
2019-03-04T08:30:44.028Z,4.57
2019-03-04T08:33:11.269Z,4.66
2019-03-04T08:35:38.060Z,4.67
2019-03-04T08:38:04.797Z,4.68
2019-03-04T08:40:31.535Z,4.73
2019-03-04T08:42:58.397Z,4.83
2019-03-04T08:45:25.227Z,4.81
2019-03-04T08:47:51.997Z,4.92
2019-03-04T08:50:18.876Z,4.99
2019-03-04T08:52:45.608Z,5.08
2019-03-04T08:55:17.104Z,5.16
2019-03-04T08:57:45.299Z,5.20
2019-03-04T09:00:25.000Z,5.24
2019-03-04T09:02:51.819Z,5.28
2019-03-04T09:05:18.565Z,5.34
2019-03-04T09:07:45.711Z,5.37
2019-03-04T09:10:22.118Z,5.35
2019-03-04T09:12:48.882Z,5.30
2019-03-04T09:15:16.231Z,5.36
2019-03-04T09:17:43.081Z,5.36
2019-03-04T09:20:12.539Z,5.36
2019-03-04T09:22:39.354Z,5.39
2019-03-04T09:25:17.434Z,5.42
2019-03-04T09:27:45.432Z,5.36
2019-03-04T09:30:14.981Z,5.35
2019-03-04T09:32:41.711Z,5.34
2019-03-04T09:35:15.207Z,5.36
2019-03-04T09:37:42.048Z,5.34
2019-03-04T09:40:13.961Z,5.38
2019-03-04T09:42:40.695Z,5.41
2019-03-04T09:45:11.234Z,5.50
2019-03-04T09:47:38.018Z,5.64
2019-03-04T09:50:10.221Z,5.69
2019-03-04T09:52:36.957Z,5.77
2019-03-04T09:55:04.471Z,5.83
2019-03-04T09:57:31.183Z,5.78
2019-03-04T09:59:57.926Z,5.86
2019-03-04T10:02:24.901Z,5.94
2019-03-04T10:05:13.388Z,6.03
2019-03-04T10:07:57.823Z,6.00
2019-03-04T10:10:35.893Z,6.02
2019-03-04T10:13:10.925Z,6.00
2019-03-04T10:15:51.427Z,5.82
2019-03-04T10:18:45.676Z,5.87
2019-03-04T10:21:51.964Z,6.00
2019-03-04T10:24:29.888Z,6.12
2019-03-04T10:27:17.075Z,6.24
2019-03-04T10:30:17.595Z,6.20
2019-03-04T10:33:04.669Z,6.18
2019-03-04T10:35:51.773Z,6.22
2019-03-04T10:38:29.519Z,6.26
2019-03-04T10:41:10.873Z,6.33
2019-03-04T10:44:07.252Z,6.27
2019-03-04T10:46:53.015Z,6.28
2019-03-04T10:49:19.880Z,6.31
2019-03-04T10:51:46.789Z,6.44
2019-03-04T10:54:13.551Z,6.47
2019-03-04T10:56:42.377Z,6.55
2019-03-04T10:59:09.004Z,6.60
2019-03-04T11:01:35.747Z,6.67
2019-03-04T11:04:02.501Z,6.69
2019-03-04T11:06:29.296Z,6.76
2019-03-04T11:08:56.011Z,6.80
2019-03-04T11:11:29.468Z,6.71
2019-03-04T11:13:51.375Z,6.56
2019-03-04T11:16:18.119Z,6.69
2019-03-04T11:18:44.895Z,7.24
2019-03-04T11:21:11.630Z,7.61
2019-03-04T11:23:38.534Z,8.03
2019-03-04T11:26:05.254Z,8.56
2019-03-04T11:28:32.021Z,8.98
2019-03-04T11:30:58.833Z,9.50
2019-03-04T11:33:25.981Z,9.98
2019-03-04T11:35:52.715Z,10.34
2019-03-04T11:38:45.173Z,10.52
2019-03-04T11:41:16.563Z,10.69
2019-03-04T11:43:43.463Z,10.66
2019-03-04T11:46:10.195Z,10.76
2019-03-04T11:48:36.923Z,10.74
2019-03-04T11:51:03.739Z,10.69
2019-03-04T11:53:30.527Z,10.92
2019-03-04T11:55:57.274Z,10.81
2019-03-04T11:58:24.163Z,11.13
2019-03-04T12:00:50.904Z,11.07
2019-03-04T12:03:17.717Z,11.19
2019-03-04T12:05:44.567Z,11.34
2019-03-04T12:08:11.311Z,11.40
2019-03-04T12:10:38.112Z,11.43
2019-03-04T12:13:05.835Z,11.56
2019-03-04T12:15:32.663Z,11.68
2019-03-04T12:17:59.465Z,11.71
2019-03-04T12:20:26.182Z,11.84
2019-03-04T12:22:53.074Z,11.95
2019-03-04T12:25:20.323Z,12.12
2019-03-04T12:27:47.154Z,12.12
2019-03-04T12:30:21.982Z,12.16
2019-03-04T12:32:51.002Z,12.14
2019-03-04T12:35:18.539Z,12.16
2019-03-04T12:37:45.452Z,12.34
2019-03-04T12:40:22.379Z,12.46
2019-03-04T12:42:54.596Z,12.59
2019-03-04T12:45:22.721Z,12.51
2019-03-04T12:47:49.660Z,12.20
2019-03-04T12:50:27.332Z,12.34
2019-03-04T12:52:57.510Z,12.20
2019-03-04T12:55:24.485Z,12.15
2019-03-04T12:57:51.263Z,12.04
2019-03-04T13:00:25.669Z,11.88
2019-03-04T13:02:57.477Z,11.86
2019-03-04T13:05:20.998Z,11.83
2019-03-04T13:07:47.821Z,11.85
2019-03-04T13:10:16.375Z,11.80
2019-03-04T13:12:43.486Z,11.68
2019-03-04T13:15:24.240Z,11.44
2019-03-04T13:17:51.030Z,11.51
2019-03-04T13:20:20.891Z,11.51
2019-03-04T13:22:47.637Z,11.56
2019-03-04T13:25:14.441Z,11.42
2019-03-04T13:27:42.098Z,11.34
2019-03-04T13:30:13.844Z,11.06
2019-03-04T13:32:40.765Z,10.81
2019-03-04T13:35:23.972Z,10.69
2019-03-04T13:37:43.459Z,10.43
2019-03-04T13:40:12.617Z,10.30
2019-03-04T13:42:39.346Z,9.97
2019-03-04T13:45:15.955Z,9.63
2019-03-04T13:47:43.222Z,9.73
2019-03-04T13:50:19.428Z,9.71
2019-03-04T13:52:46.157Z,10.02
2019-03-04T13:55:14.698Z,9.97
2019-03-04T13:57:41.559Z,9.90
2019-03-04T14:00:13.399Z,9.88
2019-03-04T14:02:40.124Z,9.79
2019-03-04T14:05:10.600Z,9.71
2019-03-04T14:07:37.428Z,9.62
2019-03-04T14:10:15.614Z,9.31
2019-03-04T14:12:42.372Z,9.39
2019-03-04T14:15:23.256Z,9.40
2019-03-04T14:17:49.994Z,9.29
2019-03-04T14:20:16.701Z,9.11
2019-03-04T14:22:43.511Z,8.83
2019-03-04T14:25:12.282Z,8.88
2019-03-04T14:27:39.022Z,8.73
2019-03-04T14:30:16.191Z,8.63
2019-03-04T14:32:43.013Z,8.48
2019-03-04T14:35:10.054Z,8.39
2019-03-04T14:37:36.824Z,8.30
2019-03-04T14:40:08.371Z,8.34
2019-03-04T14:42:35.265Z,8.38
2019-03-04T14:45:06.072Z,8.33
2019-03-04T14:47:32.806Z,8.19
2019-03-04T14:50:09.427Z,8.09
2019-03-04T14:52:28.230Z,8.01
2019-03-04T14:54:55.035Z,7.89
2019-03-04T14:57:22.731Z,7.82
2019-03-04T14:59:49.455Z,7.73
2019-03-04T15:02:16.326Z,7.62
2019-03-04T15:04:43.069Z,7.50
2019-03-04T15:07:09.791Z,7.46
2019-03-04T15:09:36.571Z,7.46
2019-03-04T15:12:03.296Z,7.40
2019-03-04T15:14:30.037Z,7.33
2019-03-04T15:17:03.250Z,7.29
2019-03-04T15:19:25.380Z,7.35
2019-03-04T15:21:52.108Z,7.27
2019-03-04T15:24:19.040Z,7.31
2019-03-04T15:26:45.770Z,7.19
2019-03-04T15:29:12.487Z,7.18
2019-03-04T15:31:39.292Z,7.11
2019-03-04T15:34:06.010Z,7.16
2019-03-04T15:36:32.744Z,7.14
2019-03-04T15:38:59.544Z,7.07
2019-03-04T15:41:26.285Z,6.98
2019-03-04T15:43:53.015Z,6.83
2019-03-04T15:46:19.827Z,6.83
2019-03-04T15:48:46.568Z,6.64
2019-03-04T15:51:13.321Z,6.66
2019-03-04T15:53:40.139Z,6.56
2019-03-04T15:56:06.860Z,6.63
2019-03-04T15:58:33.640Z,6.60
2019-03-04T16:01:02.349Z,6.49
2019-03-04T16:03:29.263Z,6.51
2019-03-04T16:05:56.117Z,6.41
2019-03-04T16:08:22.888Z,6.39
2019-03-04T16:10:49.604Z,6.31
2019-03-04T16:13:16.349Z,6.24
2019-03-04T16:15:45.854Z,6.17
2019-03-04T16:18:12.590Z,6.23
2019-03-04T16:20:39.327Z,6.18
2019-03-04T16:23:06.195Z,6.19
2019-03-04T16:25:33.339Z,6.12
2019-03-04T16:28:08.002Z,6.19
2019-03-04T16:30:34.838Z,6.07
2019-03-04T16:33:01.715Z,5.99
2019-03-04T16:35:28.459Z,6.00
2019-03-04T16:37:55.204Z,6.04
2019-03-04T16:40:23.998Z,6.02
2019-03-04T16:42:50.739Z,6.01
2019-03-04T16:45:22.048Z,5.85
2019-03-04T16:47:49.518Z,5.93
2019-03-04T16:50:24.534Z,5.99
2019-03-04T16:53:01.730Z,5.99
2019-03-04T16:55:28.458Z,5.96
2019-03-04T16:57:55.199Z,5.96
2019-03-04T17:00:22.022Z,5.95
2019-03-04T17:02:49.269Z,6.02
2019-03-04T17:05:17.565Z,6.06
2019-03-04T17:07:45.805Z,5.99
2019-03-04T17:10:18.284Z,6.00
2019-03-04T17:12:45.195Z,5.96
2019-03-04T17:15:20.327Z,5.94
2019-03-04T17:17:47.411Z,5.82
2019-03-04T17:20:16.535Z,5.84
2019-03-04T17:22:43.392Z,5.77
2019-03-04T17:25:22.043Z,5.77
2019-03-04T17:27:48.875Z,5.78
2019-03-04T17:30:19.578Z,5.71
2019-03-04T17:32:46.422Z,5.68
2019-03-04T17:35:17.764Z,5.68
2019-03-04T17:37:44.905Z,5.71
2019-03-04T17:40:16.354Z,5.71
2019-03-04T17:42:43.086Z,5.74
2019-03-04T17:45:13.182Z,5.74
2019-03-04T17:47:39.925Z,5.68
2019-03-04T17:50:17.550Z,5.66
2019-03-04T17:52:44.397Z,5.74
2019-03-04T17:55:13.541Z,5.80
2019-03-04T17:57:40.363Z,5.87
2019-03-04T18:00:11.787Z,5.88
2019-03-04T18:02:38.554Z,5.79
2019-03-04T18:05:08.500Z,5.45
2019-03-04T18:07:35.956Z,5.01
2019-03-04T18:10:07.440Z,4.96
2019-03-04T18:12:34.233Z,4.93
2019-03-04T18:15:00.963Z,4.89
2019-03-04T18:17:28.302Z,4.89
2019-03-04T18:19:55.054Z,4.98
2019-03-04T18:22:21.794Z,5.02
2019-03-04T18:24:48.603Z,4.97
2019-03-04T18:27:15.386Z,4.95
2019-03-04T18:29:53.353Z,4.72
2019-03-04T18:32:37.461Z,4.61
2019-03-04T18:35:38.276Z,4.72
2019-03-04T18:38:30.004Z,4.71
2019-03-04T18:41:17.508Z,4.62
2019-03-04T18:44:07.780Z,4.60
2019-03-04T18:46:49.212Z,4.65
2019-03-04T18:49:15.952Z,4.73
2019-03-04T18:51:42.680Z,4.66
2019-03-04T18:54:09.617Z,4.66
2019-03-04T18:56:36.395Z,4.71
2019-03-04T18:59:04.852Z,4.76
2019-03-04T19:01:32.026Z,4.75
2019-03-04T19:03:58.884Z,4.81
2019-03-04T19:06:25.804Z,4.81
2019-03-04T19:08:52.708Z,4.83
2019-03-04T19:11:19.704Z,4.82
2019-03-04T19:13:46.515Z,4.68
2019-03-04T19:16:13.254Z,4.63
2019-03-04T19:18:40.110Z,4.73
2019-03-04T19:21:07.026Z,4.83
2019-03-04T19:23:33.781Z,4.89
2019-03-04T19:26:00.730Z,4.77
2019-03-04T19:28:27.520Z,4.66
2019-03-04T19:30:54.265Z,4.71
2019-03-04T19:33:21.185Z,4.67
2019-03-04T19:35:47.943Z,4.76
2019-03-04T19:38:14.798Z,4.77
2019-03-04T19:40:41.611Z,4.55
2019-03-04T19:43:08.389Z,4.60
2019-03-04T19:45:35.160Z,4.46
2019-03-04T19:48:01.977Z,4.50
2019-03-04T19:50:29.125Z,4.49
2019-03-04T19:52:55.854Z,4.36
2019-03-04T19:55:22.690Z,4.44
2019-03-04T19:57:49.566Z,4.32
2019-03-04T20:00:25.031Z,4.28
2019-03-04T20:02:51.667Z,4.23
2019-03-04T20:05:19.334Z,4.25
2019-03-04T20:07:46.536Z,4.24
2019-03-04T20:10:15.759Z,4.26
2019-03-04T20:12:42.649Z,4.26
2019-03-04T20:15:29.178Z,4.30
2019-03-04T20:17:56.683Z,4.41
2019-03-04T20:20:23.680Z,4.24
2019-03-04T20:22:50.582Z,4.24
2019-03-04T20:25:17.765Z,4.36
2019-03-04T20:27:44.910Z,4.27
2019-03-04T20:30:16.517Z,4.29
2019-03-04T20:32:43.243Z,4.47
2019-03-04T20:35:12.794Z,4.48
2019-03-04T20:37:44.673Z,4.51
2019-03-04T20:40:11.548Z,4.45
2019-03-04T20:42:38.399Z,4.70
2019-03-04T20:45:10.572Z,4.75
2019-03-04T20:47:37.320Z,4.74
2019-03-04T20:50:09.287Z,4.83
2019-03-04T20:52:36.057Z,4.89
2019-03-04T20:55:06.464Z,4.79
2019-03-04T20:57:33.206Z,4.77
2019-03-04T20:59:59.938Z,4.72
2019-03-04T21:02:27.299Z,4.59
2019-03-04T21:04:54.017Z,4.53
2019-03-04T21:07:20.880Z,4.38
2019-03-04T21:09:47.655Z,4.39
2019-03-04T21:12:14.392Z,4.33
2019-03-04T21:14:41.357Z,4.43
2019-03-04T21:17:08.258Z,4.54
2019-03-04T21:19:35.003Z,4.58
2019-03-04T21:22:01.781Z,4.61
2019-03-04T21:24:28.514Z,4.65
2019-03-04T21:26:55.430Z,4.61
2019-03-04T21:29:33.719Z,4.61
2019-03-04T21:32:15.129Z,4.61
2019-03-04T21:35:20.741Z,4.52
2019-03-04T21:37:47.781Z,4.46
2019-03-04T21:40:22.721Z,4.33
2019-03-04T21:43:13.897Z,4.32
2019-03-04T21:45:57.332Z,4.30
2019-03-04T21:48:32.389Z,4.19
2019-03-04T21:51:37.612Z,4.03
2019-03-04T21:53:56.008Z,4.06
2019-03-04T21:56:37.151Z,4.08
2019-03-04T21:59:06.385Z,4.01
2019-03-04T22:01:41.513Z,3.96
2019-03-04T22:04:08.290Z,3.96
2019-03-04T22:06:35.425Z,3.95
2019-03-04T22:09:04.034Z,3.92
2019-03-04T22:11:30.875Z,4.10
2019-03-04T22:13:57.623Z,4.03
2019-03-04T22:16:24.397Z,4.02
2019-03-04T22:18:51.131Z,4.00
2019-03-04T22:21:17.846Z,3.96
2019-03-04T22:23:44.723Z,4.06
2019-03-04T22:26:11.442Z,3.96
2019-03-04T22:28:38.333Z,4.01
2019-03-04T22:31:05.164Z,4.00
2019-03-04T22:33:31.912Z,4.04
2019-03-04T22:35:58.650Z,4.00
2019-03-04T22:38:25.473Z,4.02
2019-03-04T22:40:52.281Z,3.99
2019-03-04T22:43:19.021Z,3.93
2019-03-04T22:45:45.762Z,3.87
2019-03-04T22:48:12.545Z,3.80
2019-03-04T22:50:39.262Z,3.81
2019-03-04T22:53:06.131Z,3.70
2019-03-04T22:55:36.991Z,3.66
2019-03-04T22:58:05.414Z,3.62
2019-03-04T23:00:52.781Z,3.69
2019-03-04T23:03:27.283Z,3.72
2019-03-04T23:06:10.584Z,3.66
2019-03-04T23:08:37.315Z,3.64
2019-03-04T23:11:04.063Z,3.59
2019-03-04T23:13:41.589Z,3.59
2019-03-04T23:16:09.421Z,3.59
2019-03-04T23:18:36.138Z,3.51
2019-03-04T23:21:03.212Z,3.49
2019-03-04T23:23:29.949Z,3.47
2019-03-04T23:25:56.753Z,3.44
2019-03-04T23:28:23.486Z,3.44
2019-03-04T23:30:50.218Z,3.39
2019-03-04T23:33:17.030Z,3.35
2019-03-04T23:35:43.771Z,3.34
2019-03-04T23:38:10.505Z,3.36
2019-03-04T23:40:37.285Z,3.28
2019-03-04T23:43:04.025Z,3.29
2019-03-04T23:45:30.982Z,3.26
2019-03-04T23:47:57.766Z,3.19
2019-03-04T23:50:24.476Z,3.15
2019-03-04T23:52:51.317Z,3.11
2019-03-04T23:55:18.881Z,3.12
2019-03-04T23:57:45.610Z,3.13
